createdAt,value
2022-08-25T00:01:53.758Z,99.90
2022-08-25T00:04:23.010Z,99.90
2022-08-25T00:06:51.158Z,99.90
2022-08-25T00:09:23.582Z,99.90
2022-08-25T00:11:51.927Z,99.90
2022-08-25T00:14:23.514Z,99.90
2022-08-25T00:16:51.646Z,99.90
2022-08-25T00:19:27.426Z,99.90
2022-08-25T00:21:56.283Z,99.90
2022-08-25T00:24:26.601Z,99.90
2022-08-25T00:26:57.406Z,99.90
2022-08-25T00:29:26.778Z,99.90
2022-08-25T00:31:55.394Z,99.90
2022-08-25T00:34:26.562Z,99.90
2022-08-25T00:36:54.966Z,99.90
2022-08-25T00:39:25.546Z,99.90
2022-08-25T00:41:56.597Z,99.90
2022-08-25T00:44:26.197Z,99.90
2022-08-25T00:46:56.777Z,99.90
2022-08-25T00:49:28.614Z,99.90
2022-08-25T00:52:01.206Z,99.90
2022-08-25T00:54:34.880Z,99.90
2022-08-25T00:57:04.069Z,99.90
2022-08-25T00:59:32.348Z,99.90
2022-08-25T01:02:02.502Z,99.90
2022-08-25T01:04:30.761Z,99.90
2022-08-25T01:06:59.960Z,99.90
2022-08-25T01:09:31.296Z,99.90
2022-08-25T01:11:59.996Z,99.90
2022-08-25T01:14:31.441Z,99.90
2022-08-25T01:17:00.268Z,99.90
2022-08-25T01:19:29.985Z,99.90
2022-08-25T01:21:59.720Z,99.90
2022-08-25T01:24:33.682Z,99.90
2022-08-25T01:27:01.757Z,99.90
2022-08-25T01:29:31.167Z,99.90
2022-08-25T01:32:00.904Z,99.90
2022-08-25T01:34:31.031Z,99.90
2022-08-25T01:37:01.931Z,99.90
2022-08-25T01:39:34.005Z,99.90
2022-08-25T01:42:18.811Z,99.90
2022-08-25T01:44:48.593Z,99.90
2022-08-25T01:47:17.324Z,99.90
2022-08-25T01:49:45.424Z,99.90
2022-08-25T01:52:20.332Z,99.90
2022-08-25T01:54:49.656Z,99.90
2022-08-25T01:57:18.063Z,99.90
2022-08-25T01:59:46.432Z,99.90
2022-08-25T02:02:14.458Z,99.90
2022-08-25T02:04:44.263Z,99.90
2022-08-25T02:07:14.203Z,99.90
2022-08-25T02:09:42.214Z,99.90
2022-08-25T02:12:10.319Z,99.90
2022-08-25T02:14:38.896Z,99.90
2022-08-25T02:17:07.818Z,99.90
2022-08-25T02:19:35.916Z,99.90
2022-08-25T02:22:04.846Z,99.90
2022-08-25T02:24:34.963Z,99.90
2022-08-25T02:27:04.077Z,99.90
2022-08-25T02:29:32.277Z,99.90
2022-08-25T02:32:00.572Z,99.90
2022-08-25T02:34:28.558Z,99.90
2022-08-25T02:36:56.560Z,99.90
2022-08-25T02:39:24.735Z,99.90
2022-08-25T02:41:54.251Z,99.90
2022-08-25T02:44:22.291Z,99.90
2022-08-25T02:46:50.262Z,99.90
2022-08-25T02:49:18.691Z,99.90
2022-08-25T02:51:46.650Z,99.90
2022-08-25T02:54:14.954Z,99.90
2022-08-25T02:56:43.458Z,99.90
2022-08-25T02:59:13.666Z,99.90
2022-08-25T03:01:41.809Z,99.90
2022-08-25T03:04:09.878Z,99.90
2022-08-25T03:06:38.030Z,99.90
2022-08-25T03:09:06.505Z,99.90
2022-08-25T03:11:34.489Z,99.90
2022-08-25T03:14:02.610Z,99.90
2022-08-25T03:16:32.398Z,99.90
2022-08-25T03:19:01.566Z,99.90
2022-08-25T03:21:32.795Z,99.90
2022-08-25T03:24:01.771Z,99.90
2022-08-25T03:26:47.470Z,99.90
2022-08-25T03:29:15.412Z,99.90
2022-08-25T03:31:45.350Z,99.90
2022-08-25T03:34:13.982Z,99.90
2022-08-25T03:36:41.986Z,99.90
2022-08-25T03:39:10.518Z,99.90
2022-08-25T03:41:38.545Z,99.90
2022-08-25T03:44:09.136Z,99.90
2022-08-25T03:46:40.895Z,99.90
2022-08-25T03:49:12.246Z,99.90
2022-08-25T03:51:42.598Z,99.90
2022-08-25T03:54:11.854Z,99.90
2022-08-25T03:56:40.018Z,99.90
2022-08-25T03:59:10.264Z,99.90
2022-08-25T04:01:38.880Z,99.90
2022-08-25T04:04:08.125Z,99.90
2022-08-25T04:06:37.559Z,99.90
2022-08-25T04:09:05.657Z,99.90
2022-08-25T04:11:33.805Z,99.90
2022-08-25T04:14:02.660Z,99.90
2022-08-25T04:16:33.072Z,99.90
2022-08-25T04:19:03.333Z,99.90
2022-08-25T04:21:31.801Z,99.90
2022-08-25T04:24:01.220Z,99.90
2022-08-25T04:26:32.216Z,99.90
2022-08-25T04:29:01.835Z,99.90
2022-08-25T04:31:31.117Z,99.90
2022-08-25T04:33:59.644Z,99.90
2022-08-25T04:36:27.688Z,99.90
2022-08-25T04:38:55.797Z,99.90
2022-08-25T04:41:25.528Z,99.90
2022-08-25T04:43:54.881Z,99.90
2022-08-25T04:46:25.796Z,99.90
2022-08-25T04:48:55.456Z,99.90
2022-08-25T04:51:25.772Z,99.90
2022-08-25T04:53:54.328Z,99.90
2022-08-25T04:56:26.159Z,99.90
2022-08-25T04:58:55.427Z,99.90
2022-08-25T05:01:26.137Z,99.90
2022-08-25T05:03:56.693Z,99.90
2022-08-25T05:06:24.996Z,99.90
2022-08-25T05:08:53.712Z,99.90
2022-08-25T05:11:21.892Z,99.90
2022-08-25T05:13:55.480Z,99.90
2022-08-25T05:16:25.443Z,99.90
2022-08-25T05:18:54.380Z,99.90
2022-08-25T05:21:24.190Z,99.90
2022-08-25T05:23:56.657Z,99.90
2022-08-25T05:26:26.253Z,99.90
2022-08-25T05:28:56.487Z,99.90
2022-08-25T05:31:26.819Z,99.90
2022-08-25T05:33:55.731Z,99.90
2022-08-25T05:36:24.560Z,99.90
2022-08-25T05:38:52.575Z,99.90
2022-08-25T05:41:22.097Z,99.90
2022-08-25T05:43:50.739Z,99.90
2022-08-25T05:46:21.285Z,99.90
2022-08-25T05:48:50.068Z,99.90
2022-08-25T05:51:19.835Z,99.90
2022-08-25T05:53:49.696Z,99.90
2022-08-25T05:56:18.432Z,99.90
2022-08-25T05:58:47.188Z,99.90
2022-08-25T06:01:45.636Z,99.90
2022-08-25T06:04:13.639Z,99.90
2022-08-25T06:06:42.300Z,99.90
2022-08-25T06:09:11.000Z,99.90
2022-08-25T06:11:40.518Z,99.90
2022-08-25T06:14:08.672Z,99.90
2022-08-25T06:16:38.809Z,99.90
2022-08-25T06:19:08.143Z,99.90
2022-08-25T06:21:39.036Z,99.90
2022-08-25T06:24:10.034Z,99.90
2022-08-25T06:26:41.611Z,99.90
2022-08-25T06:29:09.624Z,99.90
2022-08-25T06:31:39.106Z,99.90
2022-08-25T06:34:07.524Z,99.90
2022-08-25T06:36:35.638Z,99.90
2022-08-25T06:39:03.939Z,99.90
2022-08-25T06:41:36.922Z,99.90
2022-08-25T06:44:05.982Z,99.90
2022-08-25T06:46:36.558Z,99.90
2022-08-25T06:49:07.240Z,99.90
2022-08-25T06:51:36.796Z,99.90
2022-08-25T06:54:06.272Z,99.90
2022-08-25T06:56:34.612Z,99.90
2022-08-25T06:59:03.352Z,99.90
2022-08-25T07:01:32.173Z,99.90
2022-08-25T07:04:01.802Z,99.90
2022-08-25T07:06:35.343Z,99.90
2022-08-25T07:09:05.115Z,99.90
2022-08-25T07:11:35.444Z,99.90
2022-08-25T07:14:04.731Z,99.90
2022-08-25T07:16:33.872Z,99.90
2022-08-25T07:19:02.753Z,99.90
2022-08-25T07:21:35.619Z,99.90
2022-08-25T07:24:06.526Z,99.90
2022-08-25T07:26:38.511Z,99.90
2022-08-25T07:29:10.588Z,99.90
2022-08-25T07:31:39.295Z,99.90
2022-08-25T07:34:25.624Z,99.90
2022-08-25T07:36:56.164Z,99.90
2022-08-25T07:39:25.073Z,99.90
2022-08-25T07:41:53.736Z,99.90
2022-08-25T07:44:22.637Z,99.90
2022-08-25T07:46:51.251Z,99.90
2022-08-25T07:49:23.269Z,99.90
2022-08-25T07:52:05.089Z,99.90
2022-08-25T07:54:37.931Z,99.90
2022-08-25T07:57:08.411Z,99.90
2022-08-25T07:59:39.452Z,99.90
2022-08-25T08:02:09.263Z,99.90
2022-08-25T08:04:48.837Z,99.90
2022-08-25T08:07:18.559Z,99.90
2022-08-25T08:09:56.210Z,99.90
2022-08-25T08:12:34.781Z,99.90
2022-08-25T08:15:04.555Z,99.90
2022-08-25T08:17:39.774Z,99.90
2022-08-25T08:20:09.785Z,99.90
2022-08-25T08:22:40.967Z,99.90
2022-08-25T08:25:13.687Z,99.90
2022-08-25T08:27:47.171Z,99.90
2022-08-25T08:30:16.042Z,99.90
2022-08-25T08:33:08.611Z,99.90
2022-08-25T08:35:32.254Z,99.90
2022-08-25T08:38:00.298Z,99.90
2022-08-25T08:40:32.248Z,99.90
2022-08-25T08:43:07.092Z,99.90
2022-08-25T08:45:50.974Z,99.90
2022-08-25T08:48:34.063Z,99.90
2022-08-25T08:51:15.681Z,99.90
2022-08-25T08:53:49.665Z,99.90
2022-08-25T08:56:24.300Z,99.90
2022-08-25T08:59:05.784Z,99.90
2022-08-25T09:01:38.174Z,99.90
2022-08-25T09:04:12.002Z,99.90
2022-08-25T09:06:43.962Z,99.90
2022-08-25T09:09:15.920Z,99.90
2022-08-25T09:12:01.121Z,99.90
2022-08-25T09:14:53.975Z,99.90
2022-08-25T09:17:37.317Z,99.90
2022-08-25T09:20:30.559Z,99.90
2022-08-25T09:23:07.232Z,99.90
2022-08-25T09:25:54.018Z,99.90
2022-08-25T09:28:31.162Z,99.90
2022-08-25T09:31:01.828Z,99.90
2022-08-25T09:33:33.681Z,99.90
2022-08-25T09:36:08.969Z,99.90
2022-08-25T09:38:37.522Z,99.90
2022-08-25T09:41:07.606Z,99.90
2022-08-25T09:43:39.123Z,99.90
2022-08-25T09:46:14.006Z,99.90
2022-08-25T09:48:48.467Z,99.90
2022-08-25T09:51:28.435Z,99.90
2022-08-25T09:54:00.010Z,99.90
2022-08-25T09:56:31.838Z,99.90
2022-08-25T09:59:21.486Z,99.90
2022-08-25T10:02:05.920Z,99.90
2022-08-25T10:04:36.948Z,99.90
2022-08-25T10:07:19.783Z,99.90
2022-08-25T10:09:55.040Z,99.90
2022-08-25T10:12:31.068Z,99.90
2022-08-25T10:15:00.444Z,99.90
2022-08-25T10:17:30.244Z,99.90
2022-08-25T10:20:19.901Z,99.90
2022-08-25T10:22:50.422Z,99.90
2022-08-25T10:25:27.966Z,99.90
2022-08-25T10:28:11.945Z,99.90
2022-08-25T10:30:57.002Z,99.90
2022-08-25T10:33:36.247Z,99.90
2022-08-25T10:36:09.062Z,99.90
2022-08-25T10:38:43.161Z,99.90
2022-08-25T10:41:33.000Z,99.90
2022-08-25T10:44:32.548Z,99.50
2022-08-25T10:47:28.405Z,98.50
2022-08-25T10:50:03.169Z,97.80
2022-08-25T10:52:40.034Z,98.10
2022-08-25T10:55:18.737Z,98.50
2022-08-25T10:57:56.218Z,98.80
2022-08-25T11:00:31.486Z,99.00
2022-08-25T11:03:19.313Z,98.80
2022-08-25T11:05:52.110Z,98.90
2022-08-25T11:08:27.795Z,98.90
2022-08-25T11:11:03.516Z,98.00
2022-08-25T11:13:43.247Z,97.10
2022-08-25T11:16:18.563Z,96.00
2022-08-25T11:19:00.732Z,95.30
2022-08-25T11:21:36.709Z,94.40
2022-08-25T11:24:14.573Z,94.40
2022-08-25T11:26:47.866Z,93.40
2022-08-25T11:29:18.866Z,92.60
2022-08-25T11:31:53.642Z,92.10
2022-08-25T11:34:24.707Z,91.90
2022-08-25T11:36:56.232Z,91.90
2022-08-25T11:39:40.358Z,92.10
2022-08-25T11:42:22.023Z,92.50
2022-08-25T11:44:59.700Z,92.60
2022-08-25T11:48:00.569Z,92.30
2022-08-25T11:50:35.184Z,91.40
2022-08-25T11:53:26.776Z,90.70
2022-08-25T11:56:02.416Z,90.00
2022-08-25T11:58:46.305Z,88.90
2022-08-25T12:01:47.563Z,87.20
2022-08-25T12:04:32.668Z,85.90
2022-08-25T12:07:22.683Z,84.90
2022-08-25T12:10:20.759Z,84.00
2022-08-25T12:13:10.437Z,83.20
2022-08-25T12:16:01.250Z,82.70
2022-08-25T12:18:46.077Z,82.60
2022-08-25T12:21:33.694Z,82.30
2022-08-25T12:24:26.217Z,82.10
2022-08-25T12:26:59.226Z,81.80
2022-08-25T12:29:33.166Z,81.80
2022-08-25T12:32:31.407Z,81.60
2022-08-25T12:35:17.308Z,82.00
2022-08-25T12:38:00.523Z,83.10
2022-08-25T12:40:34.801Z,83.80
2022-08-25T12:43:07.647Z,83.10
2022-08-25T12:45:42.326Z,82.20
2022-08-25T12:48:59.102Z,81.00
2022-08-25T12:51:29.862Z,79.70
2022-08-25T12:54:12.533Z,78.80
2022-08-25T12:56:48.698Z,78.30
2022-08-25T12:59:19.886Z,77.50
2022-08-25T13:02:10.821Z,77.50
2022-08-25T13:05:06.498Z,75.90
2022-08-25T13:07:59.689Z,75.20
2022-08-25T13:10:43.132Z,74.70
2022-08-25T13:13:24.204Z,74.80
2022-08-25T13:16:00.681Z,74.30
2022-08-25T13:18:30.838Z,73.60
2022-08-25T13:21:07.702Z,73.50
2022-08-25T13:23:39.110Z,72.90
2022-08-25T13:26:07.559Z,71.70
2022-08-25T13:28:41.941Z,71.00
2022-08-25T13:31:16.838Z,70.60
2022-08-25T13:33:58.221Z,69.50
2022-08-25T13:36:51.954Z,68.60
2022-08-25T13:39:45.496Z,68.90
2022-08-25T13:42:15.756Z,68.70
2022-08-25T13:44:51.794Z,68.00
2022-08-25T13:47:34.179Z,68.00
2022-08-25T13:50:23.731Z,68.20
2022-08-25T13:52:57.931Z,67.80
2022-08-25T13:55:30.531Z,67.80
2022-08-25T13:58:12.798Z,67.60
2022-08-25T14:00:48.663Z,67.60
2022-08-25T14:03:31.702Z,68.10
2022-08-25T14:06:11.102Z,68.10
2022-08-25T14:08:41.672Z,68.50
2022-08-25T14:11:14.893Z,67.90
2022-08-25T14:13:45.026Z,67.40
2022-08-25T14:16:19.691Z,67.60
2022-08-25T14:18:51.901Z,67.70
2022-08-25T14:21:22.710Z,67.20
2022-08-25T14:23:50.889Z,67.20
2022-08-25T14:26:18.994Z,67.30
2022-08-25T14:28:48.614Z,66.90
2022-08-25T14:31:28.547Z,66.70
2022-08-25T14:34:00.521Z,67.00
2022-08-25T14:36:30.779Z,67.00
2022-08-25T14:38:59.339Z,66.60
2022-08-25T14:41:28.792Z,66.10
2022-08-25T14:43:56.829Z,65.60
2022-08-25T14:46:28.972Z,65.50
2022-08-25T14:48:59.638Z,65.60
2022-08-25T14:51:29.655Z,65.70
2022-08-25T14:54:02.528Z,65.40
2022-08-25T14:56:30.830Z,66.60
2022-08-25T14:58:59.834Z,65.50
2022-08-25T15:01:30.393Z,65.70
2022-08-25T15:04:04.013Z,65.50
2022-08-25T15:06:32.367Z,65.20
2022-08-25T15:09:10.943Z,64.90
2022-08-25T15:11:41.627Z,65.00
2022-08-25T15:14:10.980Z,64.50
2022-08-25T15:16:45.226Z,64.10
2022-08-25T15:19:16.198Z,63.80
2022-08-25T15:21:46.218Z,63.80
2022-08-25T15:24:17.725Z,63.90
2022-08-25T15:29:24.506Z,64.90
2022-08-25T15:31:54.547Z,65.90
2022-08-25T15:34:22.730Z,66.90
2022-08-25T15:36:51.106Z,68.00
2022-08-25T15:39:19.948Z,69.00
2022-08-25T15:41:52.142Z,70.00
2022-08-25T15:44:24.147Z,70.30
2022-08-25T15:46:56.361Z,70.40
2022-08-25T15:49:24.895Z,70.20
2022-08-25T15:51:54.321Z,69.80
2022-08-25T15:54:23.265Z,69.80
2022-08-25T15:56:51.777Z,69.90
2022-08-25T15:59:21.660Z,70.00
2022-08-25T16:01:53.436Z,70.20
2022-08-25T16:04:24.478Z,70.00
2022-08-25T16:06:53.135Z,69.50
2022-08-25T16:09:23.079Z,69.50
2022-08-25T16:11:56.119Z,69.80
2022-08-25T16:14:25.966Z,70.10
2022-08-25T16:16:58.438Z,70.60
2022-08-25T16:19:29.765Z,71.10
2022-08-25T16:21:58.926Z,71.30
2022-08-25T16:24:28.179Z,71.40
2022-08-25T16:27:11.136Z,71.70
2022-08-25T16:29:40.209Z,72.00
2022-08-25T16:32:09.450Z,71.80
2022-08-25T16:34:39.725Z,71.90
2022-08-25T16:37:08.617Z,71.90
2022-08-25T16:39:39.863Z,72.10
2022-08-25T16:42:08.241Z,72.20
2022-08-25T16:44:37.422Z,72.60
2022-08-25T16:47:06.589Z,73.00
2022-08-25T16:49:38.674Z,73.70
2022-08-25T16:52:28.455Z,74.30
2022-08-25T16:55:15.921Z,74.80
2022-08-25T16:57:47.565Z,75.30
2022-08-25T17:00:19.498Z,75.90
2022-08-25T17:02:47.710Z,76.30
2022-08-25T17:05:19.418Z,76.60
2022-08-25T17:08:08.692Z,76.90
2022-08-25T17:10:39.647Z,77.30
2022-08-25T17:13:08.070Z,78.00
2022-08-25T17:15:39.990Z,78.30
2022-08-25T17:18:08.361Z,78.60
2022-08-25T17:20:41.102Z,79.00
2022-08-25T17:23:11.913Z,79.50
2022-08-25T17:25:43.560Z,80.00
2022-08-25T17:28:12.773Z,80.40
2022-08-25T17:30:41.997Z,80.90
2022-08-25T17:33:10.069Z,81.20
2022-08-25T17:35:41.221Z,81.80
2022-08-25T17:38:09.522Z,82.50
2022-08-25T17:40:38.120Z,83.10
2022-08-25T17:43:09.145Z,83.70
2022-08-25T17:45:39.141Z,84.00
2022-08-25T17:48:08.581Z,84.50
2022-08-25T17:50:37.157Z,85.00
2022-08-25T17:53:09.286Z,85.50
2022-08-25T17:55:37.877Z,86.10
2022-08-25T17:58:06.085Z,86.50
2022-08-25T18:00:37.906Z,87.10
2022-08-25T18:03:08.774Z,87.70
2022-08-25T18:05:39.001Z,88.30
2022-08-25T18:08:10.535Z,88.80
2022-08-25T18:10:39.437Z,89.40
2022-08-25T18:13:07.597Z,89.90
2022-08-25T18:15:36.569Z,90.10
2022-08-25T18:18:04.898Z,90.30
2022-08-25T18:20:33.996Z,90.60
2022-08-25T18:23:05.018Z,90.80
2022-08-25T18:25:41.813Z,91.10
2022-08-25T18:28:11.533Z,91.80
2022-08-25T18:30:40.517Z,91.80
2022-08-25T18:33:08.859Z,92.30
2022-08-25T18:35:37.937Z,92.80
2022-08-25T18:38:23.635Z,93.20
2022-08-25T18:40:57.602Z,93.70
2022-08-25T18:43:26.362Z,94.20
2022-08-25T18:45:54.996Z,94.50
2022-08-25T18:48:23.819Z,94.90
2022-08-25T18:50:56.590Z,95.20
2022-08-25T18:53:36.899Z,95.60
2022-08-25T18:56:16.842Z,95.90
2022-08-25T18:58:45.552Z,96.10
2022-08-25T19:01:14.586Z,96.50
2022-08-25T19:03:44.488Z,96.80
2022-08-25T19:06:12.509Z,97.00
2022-08-25T19:08:41.903Z,97.40
2022-08-25T19:11:10.769Z,97.70
2022-08-25T19:13:40.677Z,98.00
2022-08-25T19:16:13.818Z,98.20
2022-08-25T19:18:45.750Z,98.40
2022-08-25T19:21:13.850Z,98.60
2022-08-25T19:23:41.861Z,99.00
2022-08-25T19:26:17.039Z,99.30
2022-08-25T19:28:48.666Z,99.70
2022-08-25T19:31:18.324Z,99.90
2022-08-25T19:33:47.929Z,99.90
2022-08-25T19:36:17.454Z,99.90
2022-08-25T19:38:45.536Z,99.90
2022-08-25T19:41:15.024Z,99.90
2022-08-25T19:43:56.379Z,99.90
2022-08-25T19:46:32.329Z,99.90
2022-08-25T19:49:07.137Z,99.90
2022-08-25T19:51:36.194Z,99.90
2022-08-25T19:54:04.305Z,99.90
2022-08-25T19:56:32.524Z,99.90
2022-08-25T19:59:01.180Z,99.90
2022-08-25T20:01:30.812Z,99.90
2022-08-25T20:03:58.889Z,99.90
2022-08-25T20:06:27.781Z,99.90
2022-08-25T20:08:59.052Z,99.90
2022-08-25T20:11:29.625Z,99.90
2022-08-25T20:14:03.024Z,99.90
2022-08-25T20:16:33.114Z,99.90
2022-08-25T20:19:01.289Z,99.90
2022-08-25T20:21:31.948Z,99.90
2022-08-25T20:24:19.088Z,99.90
2022-08-25T20:26:47.228Z,99.90
2022-08-25T20:29:15.349Z,99.90
2022-08-25T20:31:45.384Z,99.90
2022-08-25T20:34:14.360Z,99.90
2022-08-25T20:36:50.138Z,99.90
2022-08-25T20:39:20.184Z,99.90
2022-08-25T20:41:48.635Z,99.90
2022-08-25T20:44:17.492Z,99.90
2022-08-25T20:46:47.069Z,99.90
2022-08-25T20:49:15.641Z,99.90
2022-08-25T20:51:44.059Z,99.90
2022-08-25T20:54:14.141Z,99.90
2022-08-25T20:56:42.828Z,99.90
2022-08-25T20:59:11.652Z,99.90
2022-08-25T21:01:41.180Z,99.90
2022-08-25T21:04:14.427Z,99.90
2022-08-25T21:06:43.267Z,99.90
2022-08-25T21:09:16.158Z,99.90
2022-08-25T21:11:45.191Z,99.90
2022-08-25T21:14:15.407Z,99.90
2022-08-25T21:16:46.446Z,99.90
2022-08-25T21:19:17.977Z,99.90
2022-08-25T21:21:59.551Z,99.90
2022-08-25T21:24:29.251Z,99.90
2022-08-25T21:26:59.360Z,99.90
2022-08-25T21:29:30.007Z,99.90
2022-08-25T21:31:59.613Z,99.90
2022-08-25T21:34:29.744Z,99.90
2022-08-25T21:36:58.364Z,99.90
2022-08-25T21:39:32.095Z,99.90
2022-08-25T21:42:01.174Z,99.90
2022-08-25T21:44:30.199Z,99.90
2022-08-25T21:46:58.370Z,99.90
2022-08-25T21:49:28.220Z,99.90
2022-08-25T21:52:00.940Z,99.90
2022-08-25T21:54:30.610Z,99.90
2022-08-25T21:57:00.411Z,99.90
2022-08-25T21:59:34.886Z,99.90
2022-08-25T22:02:08.092Z,99.90
2022-08-25T22:04:39.510Z,99.90
2022-08-25T22:07:08.015Z,99.90
2022-08-25T22:09:36.588Z,99.90
2022-08-25T22:12:06.106Z,99.90
2022-08-25T22:14:34.678Z,99.90
2022-08-25T22:17:03.097Z,99.90
2022-08-25T22:19:31.375Z,99.90
2022-08-25T22:22:02.970Z,99.90
2022-08-25T22:24:31.230Z,99.90
2022-08-25T22:26:59.290Z,99.90
2022-08-25T22:29:28.786Z,99.90
2022-08-25T22:32:00.975Z,99.90
2022-08-25T22:34:32.815Z,99.90
2022-08-25T22:37:03.634Z,99.90
2022-08-25T22:39:32.514Z,99.90
2022-08-25T22:42:03.259Z,99.90
2022-08-25T22:44:31.598Z,99.90
2022-08-25T22:46:59.694Z,99.90
2022-08-25T22:49:29.335Z,99.90
2022-08-25T22:51:58.292Z,99.90
2022-08-25T22:54:27.826Z,99.90
2022-08-25T22:56:55.914Z,99.90
2022-08-25T22:59:23.986Z,99.90
2022-08-25T23:01:54.661Z,99.90
2022-08-25T23:04:23.219Z,99.90
2022-08-25T23:06:53.214Z,99.90
2022-08-25T23:09:22.219Z,99.90
2022-08-25T23:11:51.688Z,99.90
2022-08-25T23:14:20.061Z,99.90
2022-08-25T23:16:50.508Z,99.90
2022-08-25T23:19:19.858Z,99.90
2022-08-25T23:22:05.551Z,99.90
2022-08-25T23:24:33.913Z,99.90
2022-08-25T23:27:06.054Z,99.90
2022-08-25T23:29:39.307Z,99.90
2022-08-25T23:32:08.937Z,99.90
2022-08-25T23:34:39.438Z,99.90
2022-08-25T23:37:08.566Z,99.90
2022-08-25T23:39:39.256Z,99.90
2022-08-25T23:42:09.461Z,99.90
2022-08-25T23:44:38.222Z,99.90
2022-08-25T23:47:07.058Z,99.90
2022-08-25T23:49:35.151Z,99.90
2022-08-25T23:52:03.658Z,99.90
2022-08-25T23:54:32.277Z,99.90
2022-08-25T23:57:00.781Z,99.90
2022-08-25T23:59:32.283Z,99.90
